Time;durP1;ratioP1;P1;durP2;ratioP2;P2;SDS_P1;SDS_P2;PMS_P1;PMS_P2;Temp;Humidity;BMP_temperature;BMP_pressure;BME280_temperature;BME280_humidity;BME280_pressure;Samples;Min_cycle;Max_cycle;Signal;HPM_P1;HPM_P2
2021/08/21 00:04:31;;;;;;;8.23;5.90;;;;;15.90;101298.00;;;;12865864;22;20178;-79
2021/08/21 00:09:36;;;;;;;6.57;5.97;;;;;15.80;101303.00;;;;12912855;22;20181;-78
2021/08/21 00:14:38;;;;;;;10.10;6.43;;;;;15.80;101293.00;;;;12936021;22;20172;-79
2021/08/21 00:19:39;;;;;;;7.67;6.20;;;;;15.70;101286.00;;;;12912727;22;20185;-79
2021/08/21 00:24:41;;;;;;;8.60;5.87;;;;;15.60;101288.00;;;;12891209;22;20170;-79
2021/08/21 00:29:42;;;;;;;7.17;6.20;;;;;15.50;101286.00;;;;12938123;22;20248;-78
2021/08/21 00:34:46;;;;;;;7.63;6.60;;;;;15.40;101278.00;;;;12891481;22;20550;-79
2021/08/21 00:39:47;;;;;;;9.03;7.33;;;;;15.30;101284.00;;;;12840867;22;20178;-78
2021/08/21 00:44:48;;;;;;;8.10;6.40;;;;;15.20;101288.00;;;;12913377;22;20165;-78
2021/08/21 00:49:53;;;;;;;6.17;5.50;;;;;15.20;101292.00;;;;12866505;22;20197;-78
2021/08/21 00:54:55;;;;;;;9.27;6.37;;;;;15.10;101288.00;;;;12915394;22;20267;-78
2021/08/21 00:59:57;;;;;;;13.53;6.07;;;;;15.10;101281.00;;;;12937511;22;20200;-78
2021/08/21 01:04:59;;;;;;;7.67;5.33;;;;;15.10;101283.00;;;;12891865;22;20253;-79
2021/08/21 01:10:07;;;;;;;7.17;5.70;;;;;15.00;101276.00;;;;12891238;22;20641;-78
2021/08/21 01:15:11;;;;;;;7.57;5.40;;;;;14.90;101282.00;;;;12937628;22;20530;-78
2021/08/21 01:20:13;;;;;;;8.83;5.10;;;;;14.90;101274.00;;;;12867446;22;20621;-78
2021/08/21 01:25:21;;;;;;;8.50;5.30;;;;;14.80;101277.00;;;;12916421;22;20169;-78
2021/08/21 01:30:23;;;;;;;6.33;5.00;;;;;14.70;101266.00;;;;12891078;22;20220;-78
2021/08/21 01:35:29;;;;;;;9.67;5.00;;;;;14.70;101270.00;;;;12867189;22;20255;-79
2021/08/21 01:40:30;;;;;;;5.97;5.00;;;;;14.60;101270.00;;;;12866255;22;20177;-79
2021/08/21 01:45:34;;;;;;;10.67;5.30;;;;;14.60;101278.00;;;;12890686;22;20169;-79
2021/08/21 01:50:35;;;;;;;6.50;5.30;;;;;14.60;101272.00;;;;12891478;22;20193;-78
2021/08/21 01:55:38;;;;;;;7.33;5.10;;;;;14.60;101276.00;;;;12841825;22;20181;-78
2021/08/21 02:00:51;;;;;;;6.90;4.90;;;;;14.60;101271.00;;;;12869081;22;20174;-79
2021/08/21 02:05:55;;;;;;;7.97;5.50;;;;;14.70;101265.00;;;;12937469;22;20169;-79
2021/08/21 02:10:57;;;;;;;8.27;5.60;;;;;14.70;101274.00;;;;12890648;22;20851;-79
2021/08/21 02:16:01;;;;;;;10.43;5.30;;;;;14.60;101270.00;;;;12841921;22;20630;-78
2021/08/21 02:21:02;;;;;;;6.77;5.20;;;;;14.60;101270.00;;;;12865546;22;20173;-79
2021/08/21 02:26:04;;;;;;;9.17;5.90;;;;;14.50;101270.00;;;;12890595;22;20193;-79
2021/08/21 02:31:10;;;;;;;8.83;5.23;;;;;14.50;101271.00;;;;12889772;22;20621;-79
2021/08/21 02:36:13;;;;;;;6.63;5.43;;;;;14.50;101266.00;;;;12936919;22;20204;-79
2021/08/21 02:41:14;;;;;;;8.13;5.20;;;;;14.40;101262.00;;;;12918310;22;20174;-79
2021/08/21 02:46:16;;;;;;;6.20;5.17;;;;;14.40;101255.00;;;;12842813;22;20239;-79
2021/08/21 02:51:17;;;;;;;6.97;5.40;;;;;14.30;101258.00;;;;12868849;22;20170;-79
2021/08/21 02:56:18;;;;;;;11.97;5.67;;;;;14.30;101250.00;;;;12867344;22;20232;-78
2021/08/21 03:01:22;;;;;;;5.50;4.60;;;;;14.20;101245.00;;;;12892949;22;20180;-79
2021/08/21 03:06:23;;;;;;;10.53;5.40;;;;;14.20;101244.00;;;;12892681;22;20240;-79
2021/08/21 03:11:25;;;;;;;6.63;5.83;;;;;14.20;101233.00;;;;12867673;22;20170;-79
2021/08/21 03:16:58;;;;;;;7.97;5.80;;;;;14.20;101235.00;;;;12873162;22;20202;-78
2021/08/21 03:21:59;;;;;;;7.53;5.40;;;;;14.20;101234.00;;;;12892262;22;20178;-79
2021/08/21 03:27:01;;;;;;;10.67;6.07;;;;;14.20;101238.00;;;;12867887;22;20205;-79
2021/08/21 03:32:02;;;;;;;12.33;6.20;;;;;14.10;101241.00;;;;12868028;22;20181;-79
2021/08/21 03:37:05;;;;;;;12.00;5.47;;;;;14.10;101236.00;;;;12938491;22;20185;-79
2021/08/21 03:42:12;;;;;;;7.77;6.27;;;;;14.00;101247.00;;;;12937346;22;20189;-79
2021/08/21 03:47:15;;;;;;;13.60;6.87;;;;;14.00;101246.00;;;;12840511;22;20197;-79
2021/08/21 03:52:17;;;;;;;8.40;5.43;;;;;13.90;101244.00;;;;12866732;22;20280;-79
2021/08/21 03:57:18;;;;;;;8.57;6.67;;;;;13.90;101246.00;;;;12937607;22;20169;-79
2021/08/21 04:02:21;;;;;;;8.33;5.80;;;;;13.90;101240.00;;;;12890993;22;20212;-79
2021/08/21 04:07:23;;;;;;;9.33;6.93;;;;;13.90;101243.00;;;;12890525;22;20197;-79
2021/08/21 04:12:25;;;;;;;12.63;7.07;;;;;13.90;101244.00;;;;12867420;22;20177;-78
2021/08/21 04:17:45;;;;;;;11.60;6.50;;;;;13.90;101251.00;;;;12916770;22;20911;-79
2021/08/21 04:22:46;;;;;;;7.57;6.00;;;;;13.90;101250.00;;;;12841826;22;20584;-79
2021/08/21 04:27:47;;;;;;;9.20;6.77;;;;;13.80;101248.00;;;;12937768;22;20189;-79
2021/08/21 04:32:51;;;;;;;7.67;6.57;;;;;13.90;101239.00;;;;12866254;22;20290;-79
2021/08/21 04:37:57;;;;;;;9.23;7.03;;;;;13.90;101248.00;;;;12867213;22;20185;-79
2021/08/21 04:42:59;;;;;;;10.93;7.50;;;;;13.90;101245.00;;;;12891306;22;20281;-79
2021/08/21 04:48:02;;;;;;;8.80;7.03;;;;;13.90;101249.00;;;;12867628;22;20205;-79
2021/08/21 04:53:05;;;;;;;10.03;7.27;;;;;13.90;101261.00;;;;12866500;22;20169;-78
2021/08/21 04:58:06;;;;;;;8.97;7.00;;;;;14.00;101253.00;;;;12866407;22;20170;-79
2021/08/21 05:03:08;;;;;;;10.23;8.10;;;;;14.10;101257.00;;;;12916070;22;20256;-79
2021/08/21 05:08:09;;;;;;;11.10;8.73;;;;;14.20;101260.00;;;;12868162;22;20216;-78
2021/08/21 05:13:14;;;;;;;9.70;7.10;;;;;14.30;101263.00;;;;12868568;22;20256;-78
2021/08/21 05:18:22;;;;;;;12.27;8.10;;;;;14.40;101262.00;;;;12937744;22;20189;-79
2021/08/21 05:23:28;;;;;;;11.23;8.33;;;;;14.60;101256.00;;;;12868471;22;20173;-79
2021/08/21 05:28:29;;;;;;;14.20;9.43;;;;;14.90;101259.00;;;;12890822;22;20876;-79
2021/08/21 05:33:30;;;;;;;16.90;9.47;;;;;15.10;101282.00;;;;12891550;22;20174;-79
2021/08/21 05:38:32;;;;;;;14.33;9.33;;;;;15.40;101287.00;;;;12916477;22;20548;-79
2021/08/21 05:43:33;;;;;;;14.63;8.70;;;;;15.30;101284.00;;;;12868060;23;20176;-79
2021/08/21 05:48:34;;;;;;;13.17;8.53;;;;;15.30;101283.00;;;;12938071;22;20243;-79
2021/08/21 05:53:35;;;;;;;14.90;10.57;;;;;15.70;101277.00;;;;12867234;22;20599;-80
2021/08/21 05:58:36;;;;;;;14.83;11.30;;;;;16.20;101283.00;;;;12843315;22;20504;-79
2021/08/21 06:03:37;;;;;;;14.30;10.97;;;;;16.70;101285.00;;;;12937866;22;20172;-79
2021/08/21 06:08:39;;;;;;;12.93;10.23;;;;;17.20;101299.00;;;;12867590;22;20193;-79
2021/08/21 06:13:41;;;;;;;11.07;9.82;;;;;17.90;101312.00;;;;12893610;22;20248;-80
2021/08/21 06:18:43;;;;;;;8.95;8.05;;;;;18.70;101329.00;;;;12869350;22;20197;-79
2021/08/21 06:23:44;;;;;;;8.05;6.18;;;;;19.30;101342.00;;;;12868620;22;20173;-80
2021/08/21 06:28:45;;;;;;;8.30;5.70;;;;;19.90;101327.00;;;;12869573;22;20197;-80
2021/08/21 06:33:46;;;;;;;7.38;5.22;;;;;20.20;101342.00;;;;12940712;22;20169;-80
2021/08/21 06:38:47;;;;;;;8.95;5.53;;;;;20.30;101339.00;;;;12893749;22;20529;-80
2021/08/21 06:43:49;;;;;;;5.47;4.53;;;;;20.40;101326.00;;;;12939741;22;20165;-80
2021/08/21 06:48:58;;;;;;;5.50;4.90;;;;;20.40;101319.00;;;;12893365;22;20193;-80
2021/08/21 06:53:59;;;;;;;5.22;4.70;;;;;20.50;101317.00;;;;12894262;22;20177;-80
2021/08/21 06:59:00;;;;;;;7.32;4.50;;;;;20.40;101312.00;;;;12893144;22;20252;-80
2021/08/21 07:04:01;;;;;;;6.50;4.30;;;;;20.90;101296.00;;;;12893143;22;20467;-80
2021/08/21 07:09:04;;;;;;;4.50;4.10;;;;;21.40;101282.00;;;;12939419;22;20204;-79
2021/08/21 07:14:05;;;;;;;3.80;3.47;;;;;21.90;101272.00;;;;12917924;22;20180;-80
2021/08/21 07:19:06;;;;;;;3.55;3.15;;;;;22.30;101270.00;;;;12939204;22;20186;-79
2021/08/21 07:24:08;;;;;;;5.05;2.72;;;;;22.60;101253.00;;;;12939884;22;20165;-80
2021/08/21 07:29:09;;;;;;;5.18;2.70;;;;;22.90;101256.00;;;;12917009;22;20243;-80
2021/08/21 07:34:10;;;;;;;2.88;2.58;;;;;23.20;101265.00;;;;12917887;22;20192;-79
2021/08/21 07:39:11;;;;;;;3.05;2.40;;;;;23.30;101263.00;;;;12867439;22;20177;-80
2021/08/21 07:44:12;;;;;;;2.42;2.22;;;;;23.70;101254.00;;;;12892193;22;20684;-80
2021/08/21 07:49:13;;;;;;;2.45;1.90;;;;;24.10;101261.00;;;;12891328;22;20193;-79
2021/08/21 07:54:15;;;;;;;2.20;2.00;;;;;24.50;101254.00;;;;12891993;22;20193;-80
2021/08/21 07:59:16;;;;;;;2.75;1.70;;;;;24.90;101256.00;;;;12963917;22;20169;-80
2021/08/21 08:04:17;;;;;;;4.97;2.20;;;;;25.70;101265.00;;;;12892243;22;20257;-80
2021/08/21 08:09:18;;;;;;;2.00;1.80;;;;;26.50;101275.00;;;;12867042;22;20197;-79
2021/08/21 08:14:20;;;;;;;2.25;1.95;;;;;26.30;101278.00;;;;12891770;22;20169;-80
2021/08/21 08:19:21;;;;;;;2.33;1.63;;;;;26.00;101279.00;;;;12867271;22;20193;-80
2021/08/21 08:24:23;;;;;;;3.20;1.60;;;;;25.90;101285.00;;;;12891432;22;20663;-80
2021/08/21 08:29:25;;;;;;;1.67;1.50;;;;;26.20;101288.00;;;;12892092;22;20189;-80
2021/08/21 08:34:26;;;;;;;2.83;2.03;;;;;26.20;101294.00;;;;12937134;22;20169;-80
2021/08/21 08:39:27;;;;;;;3.10;2.00;;;;;26.10;101294.00;;;;12916474;22;20860;-80
2021/08/21 08:44:32;;;;;;;2.35;1.40;;;;;26.80;101287.00;;;;12891687;22;20179;-80
2021/08/21 08:49:35;;;;;;;1.60;1.50;;;;;27.40;101270.00;;;;12892483;22;20201;-81
2021/08/21 08:54:37;;;;;;;1.30;1.20;;;;;27.70;101283.00;;;;12867251;22;20170;-81
2021/08/21 08:59:38;;;;;;;5.82;1.80;;;;;27.90;101286.00;;;;12867893;22;20175;-81
2021/08/21 09:04:42;;;;;;;1.42;1.30;;;;;27.60;101280.00;;;;12893725;22;20197;-81
2021/08/21 09:09:46;;;;;;;1.40;1.30;;;;;27.70;101286.00;;;;12938220;22;20189;-81
2021/08/21 09:14:47;;;;;;;2.15;1.23;;;;;27.90;101277.00;;;;12866721;22;20237;-82
2021/08/21 09:20:00;;;;;;;3.08;1.38;;;;;28.30;101266.00;;;;12844825;22;20200;-81
2021/08/21 09:25:03;;;;;;;1.73;1.10;;;;;28.50;101274.00;;;;12870103;22;20842;-82
2021/08/21 09:30:05;;;;;;;1.35;1.25;;;;;28.60;101271.00;;;;12868501;22;20200;-81
2021/08/21 09:35:09;;;;;;;1.58;1.48;;;;;28.80;101258.00;;;;12892861;22;20161;-82
2021/08/21 09:40:30;;;;;;;2.22;1.65;;;;;29.20;101250.00;;;;12892393;22;20173;-82
2021/08/21 09:45:35;;;;;;;1.27;1.05;;;;;29.50;101256.00;;;;12917066;22;20292;-82
2021/08/21 09:50:39;;;;;;;1.23;1.13;;;;;29.70;101249.00;;;;12867955;22;20198;-82
2021/08/21 09:55:40;;;;;;;2.13;1.40;;;;;29.50;101248.00;;;;12867471;22;20265;-82
2021/08/21 10:00:45;;;;;;;2.85;1.48;;;;;29.30;101247.00;;;;12891534;22;20181;-82
2021/08/21 10:05:48;;;;;;;1.98;1.40;;;;;29.80;101235.00;;;;12867551;22;20268;-82
2021/08/21 10:10:52;;;;;;;3.00;1.50;;;;;30.10;101233.00;;;;12892030;22;20197;-82
2021/08/21 10:15:55;;;;;;;1.85;1.38;;;;;30.40;101233.00;;;;12867116;22;20292;-82
2021/08/21 10:20:56;;;;;;;1.95;1.75;;;;;30.50;101229.00;;;;12939730;22;20165;-83
2021/08/21 10:26:18;;;;;;;2.38;1.50;;;;;30.40;101224.00;;;;12866463;22;20538;-83
2021/08/21 10:31:33;;;;;;;2.72;1.38;;;;;30.70;101226.00;;;;12866625;22;20182;-82
2021/08/21 10:36:51;;;;;;;2.00;1.60;;;;;30.70;101237.00;;;;12866880;22;20177;-82
2021/08/21 10:41:54;;;;;;;2.45;1.77;;;;;30.50;101218.00;;;;12893032;22;20671;-82
2021/08/21 10:46:56;;;;;;;3.13;1.70;;;;;30.60;101215.00;;;;12866231;22;20221;-82
2021/08/21 10:51:57;;;;;;;2.92;1.63;;;;;30.90;101224.00;;;;12913796;22;20189;-82
2021/08/21 10:57:24;;;;;;;3.22;1.85;;;;;30.30;101219.00;;;;12868748;22;20177;-82
2021/08/21 11:02:26;;;;;;;3.85;1.63;;;;;30.10;101202.00;;;;12894649;22;20177;-82
2021/08/21 11:07:30;;;;;;;2.72;1.98;;;;;30.40;101210.00;;;;12894990;22;20193;-82
2021/08/21 11:12:36;;;;;;;2.75;1.77;;;;;30.20;101202.00;;;;12895133;22;20253;-82
2021/08/21 11:17:38;;;;;;;2.40;2.08;;;;;29.70;101193.00;;;;12869228;22;20625;-82
2021/08/21 11:22:39;;;;;;;2.90;2.03;;;;;29.90;101190.00;;;;12916930;22;20166;-82
2021/08/21 11:27:41;;;;;;;2.25;2.00;;;;;30.50;101191.00;;;;12869137;22;20208;-83
2021/08/21 11:32:53;;;;;;;2.28;2.10;;;;;31.20;101190.00;;;;12868811;23;20174;-83
2021/08/21 11:38:01;;;;;;;4.20;2.25;;;;;31.80;101202.00;;;;12869767;22;20185;-83
2021/08/21 11:43:04;;;;;;;5.85;2.28;;;;;30.80;101198.00;;;;12941604;22;20190;-82
2021/08/21 11:48:06;;;;;;;3.70;1.85;;;;;30.40;101193.00;;;;12845657;22;20194;-82
2021/08/21 11:53:11;;;;;;;2.92;1.98;;;;;31.20;101195.00;;;;12869004;22;20173;-83
2021/08/21 11:58:13;;;;;;;2.45;2.25;;;;;31.00;101195.00;;;;12895661;22;20166;-83
2021/08/21 12:03:15;;;;;;;4.00;2.60;;;;;31.30;101191.00;;;;12869931;22;20173;-83
2021/08/21 12:08:25;;;;;;;2.25;2.05;;;;;30.90;101190.00;;;;12916897;22;20251;-83
2021/08/21 12:13:34;;;;;;;3.05;1.83;;;;;31.50;101185.00;;;;12916759;22;20178;-83
2021/08/21 12:18:39;;;;;;;2.70;1.90;;;;;31.00;101185.00;;;;12894357;22;20196;-82
2021/08/21 12:23:43;;;;;;;3.22;2.20;;;;;31.90;101173.00;;;;12845111;22;20169;-82
2021/08/21 12:28:46;;;;;;;2.08;1.88;;;;;32.80;101176.00;;;;12870052;22;20197;-83
2021/08/21 12:33:56;;;;;;;3.28;2.05;;;;;32.70;101168.00;;;;12893936;22;20170;-83
2021/08/21 12:39:02;;;;;;;2.67;2.25;;;;;32.40;101169.00;;;;12895445;22;20205;-83
2021/08/21 12:44:14;;;;;;;2.58;2.38;;;;;31.60;101163.00;;;;12893939;22;20169;-83
2021/08/21 12:49:15;;;;;;;5.63;2.33;;;;;31.60;101158.00;;;;12870188;23;20204;-82
2021/08/21 12:54:29;;;;;;;3.17;2.55;;;;;31.20;101164.00;;;;12915759;22;20169;-83
2021/08/21 12:59:31;;;;;;;2.20;1.88;;;;;31.00;101164.00;;;;12869701;22;20176;-83
2021/08/21 13:04:32;;;;;;;3.75;2.65;;;;;31.30;101152.00;;;;12893741;22;20173;-83
2021/08/21 13:09:35;;;;;;;3.90;2.63;;;;;31.00;101158.00;;;;12894509;22;20201;-83
2021/08/21 13:14:37;;;;;;;3.05;2.72;;;;;31.60;101155.00;;;;12919973;22;20177;-82
2021/08/21 13:19:39;;;;;;;3.00;2.70;;;;;31.10;101146.00;;;;12868886;22;20257;-83
2021/08/21 13:24:46;;;;;;;2.40;2.20;;;;;30.70;101143.00;;;;12893499;22;20663;-83
2021/08/21 13:29:47;;;;;;;2.97;2.30;;;;;30.80;101142.00;;;;12892216;22;20204;-83
2021/08/21 13:34:49;;;;;;;9.30;2.72;;;;;31.10;101130.00;;;;12843876;22;20263;-83
2021/08/21 13:39:50;;;;;;;2.88;2.13;;;;;31.20;101126.00;;;;12844208;22;20209;-83
2021/08/21 13:44:52;;;;;;;2.72;2.50;;;;;31.60;101113.00;;;;12844341;22;20224;-83
2021/08/21 13:49:53;;;;;;;3.17;2.50;;;;;32.00;101115.00;;;;12842433;22;20193;-83
2021/08/21 13:54:54;;;;;;;4.25;2.78;;;;;32.40;101099.00;;;;12940312;22;20192;-83
2021/08/21 13:59:56;;;;;;;4.38;2.55;;;;;32.50;101102.00;;;;12894624;22;20779;-82
2021/08/21 14:04:57;;;;;;;5.38;2.70;;;;;31.70;101105.00;;;;12868499;22;20166;-83
2021/08/21 14:09:58;;;;;;;3.67;2.83;;;;;31.00;101106.00;;;;12870220;22;20219;-83
2021/08/21 14:15:02;;;;;;;2.30;2.05;;;;;30.50;101103.00;;;;12867994;22;20193;-83
2021/08/21 14:20:04;;;;;;;2.90;2.30;;;;;30.20;101095.00;;;;12869415;22;20243;-82
2021/08/21 14:25:05;;;;;;;5.47;2.72;;;;;30.60;101096.00;;;;12868190;22;20209;-83
2021/08/21 14:30:08;;;;;;;6.63;2.63;;;;;31.20;101082.00;;;;12867863;22;20197;-83
2021/08/21 14:35:09;;;;;;;5.78;2.50;;;;;32.10;101075.00;;;;12894980;22;20176;-83
2021/08/21 14:40:11;;;;;;;2.58;2.38;;;;;33.10;101081.00;;;;12871684;22;20188;-83
2021/08/21 14:45:13;;;;;;;2.67;2.47;;;;;31.70;101086.00;;;;12916324;22;20166;-83
2021/08/21 14:50:14;;;;;;;3.08;2.80;;;;;30.80;101077.00;;;;12844473;22;20199;-83
2021/08/21 14:55:16;;;;;;;4.90;2.38;;;;;30.30;101073.00;;;;12871092;22;20173;-83
2021/08/21 15:00:17;;;;;;;4.47;2.80;;;;;30.20;101068.00;;;;12870353;22;20268;-83
2021/08/21 15:05:18;;;;;;;5.53;3.13;;;;;30.60;101058.00;;;;12942145;22;20872;-83
2021/08/21 15:10:19;;;;;;;3.30;2.40;;;;;30.10;101056.00;;;;12895275;22;20260;-82
2021/08/21 15:15:22;;;;;;;3.20;2.40;;;;;29.70;101061.00;;;;12871009;22;20177;-82
2021/08/21 15:20:24;;;;;;;4.60;2.58;;;;;29.70;101062.00;;;;12869712;22;20182;-82
2021/08/21 15:25:25;;;;;;;2.78;2.50;;;;;29.50;101055.00;;;;12871162;22;20248;-82
2021/08/21 15:30:26;;;;;;;6.32;3.20;;;;;29.50;101058.00;;;;12870727;22;20275;-82
2021/08/21 15:35:30;;;;;;;4.15;2.63;;;;;29.40;101053.00;;;;12917367;22;20224;-82
2021/08/21 15:40:32;;;;;;;3.80;2.65;;;;;29.80;101059.00;;;;12871471;22;20180;-82
2021/08/21 15:45:35;;;;;;;3.53;2.85;;;;;29.70;101055.00;;;;12869053;22;20173;-82
2021/08/21 15:50:37;;;;;;;4.18;2.50;;;;;29.40;101053.00;;;;12870529;22;20193;-82
2021/08/21 15:55:38;;;;;;;6.35;2.70;;;;;29.10;101051.00;;;;12869599;22;20212;-82
2021/08/21 16:00:40;;;;;;;4.18;2.80;;;;;28.60;101047.00;;;;12894178;22;20177;-82
2021/08/21 16:05:41;;;;;;;4.50;2.75;;;;;28.20;101039.00;;;;12870748;22;20498;-82
2021/08/21 16:10:43;;;;;;;4.50;2.83;;;;;27.90;101039.00;;;;12940930;22;20948;-82
2021/08/21 16:15:44;;;;;;;4.47;2.50;;;;;27.60;101038.00;;;;12870094;22;20221;-82
2021/08/21 16:20:45;;;;;;;3.20;2.90;;;;;27.30;101020.00;;;;12942364;22;20219;-82
2021/08/21 16:25:47;;;;;;;5.25;2.97;;;;;27.20;101017.00;;;;12895413;22;20169;-82
2021/08/21 16:30:49;;;;;;;2.63;2.42;;;;;27.10;101013.00;;;;12870155;22;20190;-83
2021/08/21 16:35:50;;;;;;;5.22;3.03;;;;;27.10;101011.00;;;;12870739;22;20169;-82
2021/08/21 16:40:51;;;;;;;3.55;2.85;;;;;26.80;101010.00;;;;12941471;22;20196;-82
2021/08/21 16:45:52;;;;;;;5.10;3.38;;;;;26.30;101002.00;;;;12895023;22;20177;-82
2021/08/21 16:50:56;;;;;;;4.72;3.03;;;;;25.80;100993.00;;;;12916339;22;20189;-82
2021/08/21 16:55:57;;;;;;;5.32;3.38;;;;;25.30;100990.00;;;;12896472;22;20193;-81
2021/08/21 17:00:59;;;;;;;6.82;3.65;;;;;24.60;100974.00;;;;12896387;22;20264;-81
2021/08/21 17:06:02;;;;;;;5.63;3.45;;;;;24.10;100975.00;;;;12871181;22;20170;-82
2021/08/21 17:11:06;;;;;;;8.07;3.85;;;;;23.80;100983.00;;;;12871574;22;20693;-81
2021/08/21 17:16:07;;;;;;;4.85;4.35;;;;;23.60;100981.00;;;;12944034;22;20716;-81
2021/08/21 17:21:10;;;;;;;6.95;3.92;;;;;23.40;100981.00;;;;12944244;22;20252;-81
2021/08/21 17:26:11;;;;;;;6.25;4.30;;;;;23.10;100970.00;;;;12872380;22;20908;-81
2021/08/21 17:31:12;;;;;;;12.10;4.55;;;;;22.80;100970.00;;;;12874860;22;20197;-81
2021/08/21 17:36:14;;;;;;;7.00;3.72;;;;;22.60;100973.00;;;;12871573;22;20526;-81
2021/08/21 17:41:16;;;;;;;4.82;4.38;;;;;22.40;100960.00;;;;12896274;22;20170;-81
2021/08/21 17:46:17;;;;;;;7.72;4.57;;;;;22.10;100959.00;;;;12941710;22;20533;-81
2021/08/21 17:51:18;;;;;;;5.10;4.40;;;;;21.90;100954.00;;;;12896303;22;20185;-81
2021/08/21 17:56:19;;;;;;;4.57;4.05;;;;;21.60;100955.00;;;;12871170;22;20173;-80
2021/08/21 18:01:21;;;;;;;6.63;4.50;;;;;21.50;100960.00;;;;12870757;22;20995;-81
2021/08/21 18:06:22;;;;;;;4.68;4.22;;;;;21.40;100949.00;;;;12897267;22;20252;-81
2021/08/21 18:11:24;;;;;;;5.55;4.53;;;;;21.20;100957.00;;;;12898895;22;20193;-83
2021/08/21 18:16:25;;;;;;;5.50;4.90;;;;;21.10;100954.00;;;;12877967;22;20189;-84
2021/08/21 18:21:26;;;;;;;5.72;4.88;;;;;20.90;100943.00;;;;12901505;22;20181;-82
2021/08/21 18:26:29;;;;;;;8.57;5.68;;;;;20.90;100939.00;;;;12921353;22;20150;-84
2021/08/21 18:31:30;;;;;;;7.38;5.70;;;;;20.80;100940.00;;;;12879928;22;20774;-83
2021/08/21 18:36:31;;;;;;;8.98;6.00;;;;;20.70;100933.00;;;;12900887;22;20174;-85
2021/08/21 18:41:36;;;;;;;9.18;7.28;;;;;20.60;100936.00;;;;12872024;22;20172;-83
2021/08/21 18:46:37;;;;;;;7.68;6.28;;;;;20.50;100945.00;;;;12873128;22;20205;-84
2021/08/21 18:51:39;;;;;;;7.47;6.78;;;;;20.40;100949.00;;;;12873257;22;20204;-85
2021/08/21 18:56:41;;;;;;;9.20;6.43;;;;;20.40;100947.00;;;;12848059;22;20264;-84
2021/08/21 19:01:42;;;;;;;9.45;6.70;;;;;20.30;100970.00;;;;12896194;22;20178;-84
2021/08/21 19:06:44;;;;;;;8.13;6.60;;;;;20.30;100995.00;;;;12895187;22;20170;-84
2021/08/21 19:11:46;;;;;;;10.38;7.80;;;;;20.10;101014.00;;;;12918428;22;20162;-84
2021/08/21 19:16:47;;;;;;;9.50;7.78;;;;;20.00;101038.00;;;;12897336;22;20189;-84
2021/08/21 19:21:49;;;;;;;16.85;8.68;;;;;19.90;101056.00;;;;12895871;22;20257;-83
2021/08/21 19:26:51;;;;;;;14.35;8.02;;;;;19.60;101036.00;;;;12848074;22;20194;-83
2021/08/21 19:31:54;;;;;;;12.10;8.02;;;;;19.30;100985.00;;;;12895034;22;20915;-82
2021/08/21 19:36:56;;;;;;;12.63;8.00;;;;;19.20;100982.00;;;;12895403;22;20204;-82
2021/08/21 19:41:57;;;;;;;9.80;7.25;;;;;19.10;100980.00;;;;12845927;22;20173;-82
2021/08/21 19:46:58;;;;;;;8.98;5.47;;;;;19.10;100994.00;;;;12894999;22;20970;-83
2021/08/21 19:52:00;;;;;;;2.78;2.40;;;;;19.00;101019.00;;;;12895837;22;20222;-81
2021/08/21 19:57:02;;;;;;;2.90;1.85;;;;;18.90;101024.00;;;;12895805;22;20231;-80
2021/08/21 20:02:03;;;;;;;1.70;1.45;;;;;18.70;101011.00;;;;12872884;22;20177;-81
2021/08/21 20:07:06;;;;;;;5.18;1.98;;;;;18.60;100997.00;;;;12871439;22;20288;-80
2021/08/21 20:12:07;;;;;;;4.32;2.17;;;;;18.40;101004.00;;;;12868568;22;20649;-79
2021/08/21 20:17:08;;;;;;;2.63;2.40;;;;;18.40;101000.00;;;;12919189;22;20190;-78
2021/08/21 20:22:10;;;;;;;2.83;2.53;;;;;18.30;100993.00;;;;12940910;22;20158;-78
2021/08/21 20:27:11;;;;;;;5.35;2.70;;;;;18.30;100990.00;;;;12941532;22;20233;-78
2021/08/21 20:32:12;;;;;;;2.80;2.40;;;;;18.30;100994.00;;;;12918052;22;20173;-78
2021/08/21 20:37:15;;;;;;;2.88;2.63;;;;;18.30;100981.00;;;;12894292;22;20174;-78
2021/08/21 20:42:16;;;;;;;3.20;2.67;;;;;18.30;100973.00;;;;12867706;22;20166;-78
2021/08/21 20:47:17;;;;;;;3.05;2.70;;;;;18.30;100977.00;;;;12893542;22;20189;-78
2021/08/21 20:52:18;;;;;;;3.53;2.97;;;;;18.40;100972.00;;;;12939493;22;20166;-77
2021/08/21 20:57:19;;;;;;;5.03;3.03;;;;;18.30;100970.00;;;;12845580;22;20170;-78
2021/08/21 21:02:20;;;;;;;4.03;2.92;;;;;18.30;100960.00;;;;12940544;22;20173;-78
2021/08/21 21:07:22;;;;;;;6.18;3.67;;;;;18.30;100964.00;;;;12941924;22;20177;-78
2021/08/21 21:12:23;;;;;;;7.32;4.50;;;;;18.20;100958.00;;;;12869369;22;20178;-78
2021/08/21 21:17:24;;;;;;;8.60;4.07;;;;;18.10;100966.00;;;;12894184;22;20189;-78
2021/08/21 21:22:25;;;;;;;6.90;4.80;;;;;18.10;100965.00;;;;12893388;22;20176;-78
2021/08/21 21:27:26;;;;;;;7.63;4.43;;;;;18.10;100971.00;;;;12940332;22;20189;-78
2021/08/21 21:32:28;;;;;;;5.53;4.53;;;;;18.00;100971.00;;;;12914689;22;20165;-78
2021/08/21 21:37:29;;;;;;;6.28;4.80;;;;;18.00;100976.00;;;;12893963;22;20181;-78
2021/08/21 21:42:30;;;;;;;7.65;5.03;;;;;17.90;100979.00;;;;12892957;22;20847;-78
2021/08/21 21:47:32;;;;;;;19.25;5.40;;;;;17.90;100978.00;;;;12870107;22;20200;-78
2021/08/21 21:52:33;;;;;;;6.65;5.80;;;;;17.80;100991.00;;;;12940083;22;20166;-78
2021/08/21 21:57:34;;;;;;;7.07;5.90;;;;;17.80;100997.00;;;;12939821;22;20173;-78
2021/08/21 22:02:36;;;;;;;8.00;6.70;;;;;17.70;100998.00;;;;12893690;22;20173;-78
2021/08/21 22:07:37;;;;;;;8.93;6.88;;;;;17.70;101005.00;;;;12893543;22;20200;-78
2021/08/21 22:12:38;;;;;;;12.30;8.05;;;;;17.60;100999.00;;;;12894375;22;20173;-78
2021/08/21 22:17:39;;;;;;;9.07;7.60;;;;;17.60;101015.00;;;;12940764;22;20192;-77
2021/08/21 22:22:53;;;;;;;13.60;8.40;;;;;17.50;101026.00;;;;12846542;22;20225;-78
2021/08/21 22:27:56;;;;;;;12.63;9.18;;;;;17.50;101028.00;;;;12915121;22;20186;-78
2021/08/21 22:32:57;;;;;;;16.50;10.90;;;;;17.60;101030.00;;;;12892711;22;20173;-77
2021/08/21 22:38:01;;;;;;;17.33;12.70;;;;;17.70;101043.00;;;;12894034;22;20255;-78
2021/08/21 22:43:02;;;;;;;22.63;13.80;;;;;17.70;101041.00;;;;12892723;22;20184;-78
2021/08/21 22:48:05;;;;;;;25.90;15.77;;;;;17.70;101041.00;;;;12938946;22;20196;-78
2021/08/21 22:53:06;;;;;;;24.00;18.15;;;;;17.70;101046.00;;;;12892303;22;20173;-79
2021/08/21 22:58:08;;;;;;;24.50;17.77;;;;;17.80;101040.00;;;;12895353;22;20204;-78
2021/08/21 23:03:10;;;;;;;23.88;18.23;;;;;17.90;101047.00;;;;12869715;22;20177;-78
2021/08/21 23:08:11;;;;;;;25.70;18.45;;;;;17.90;101049.00;;;;12942089;22;20572;-78
2021/08/21 23:13:13;;;;;;;25.40;18.40;;;;;17.80;101053.00;;;;12919929;22;20165;-78
2021/08/21 23:18:14;;;;;;;29.83;18.60;;;;;17.70;101047.00;;;;12894642;22;20196;-78
2021/08/21 23:23:15;;;;;;;26.23;17.83;;;;;17.50;101053.00;;;;12894769;22;20181;-79
2021/08/21 23:28:16;;;;;;;28.75;17.48;;;;;17.40;101049.00;;;;12869493;22;20632;-79
2021/08/21 23:33:21;;;;;;;27.30;17.85;;;;;17.30;101056.00;;;;12868449;22;20188;-79
2021/08/21 23:38:23;;;;;;;35.17;20.00;;;;;17.30;101060.00;;;;12940085;22;20494;-78
2021/08/21 23:43:24;;;;;;;44.78;23.73;;;;;17.40;101051.00;;;;12843485;22;20173;-79
2021/08/21 23:48:27;;;;;;;50.58;25.25;;;;;17.40;101048.00;;;;12893118;22;20197;-79
2021/08/21 23:53:29;;;;;;;45.40;25.10;;;;;17.30;101045.00;;;;12892692;22;20170;-79
2021/08/21 23:58:30;;;;;;;50.58;29.58;;;;;17.30;101051.00;;;;12892405;22;20169;-78
